sensor_id;sensor_type;location;lat;lon;timestamp;P1;durP1;ratioP1;P2;durP2;ratioP2
69246;SDS011;56358;56.328;43.992;2022-07-19T00:00:31;6.07;;;4.10;;
69246;SDS011;56358;56.328;43.992;2022-07-19T00:02:32;5.55;;;3.90;;
69246;SDS011;56358;56.328;43.992;2022-07-19T00:04:34;5.97;;;4.22;;
69246;SDS011;56358;56.328;43.992;2022-07-19T00:06:35;6.22;;;4.28;;
69246;SDS011;56358;56.328;43.992;2022-07-19T00:08:36;6.15;;;4.28;;
69246;SDS011;56358;56.328;43.992;2022-07-19T00:10:40;5.50;;;3.47;;
69246;SDS011;56358;56.328;43.992;2022-07-19T00:14:44;6.18;;;4.30;;
69246;SDS011;56358;56.328;43.992;2022-07-19T00:16:44;7.60;;;3.88;;
69246;SDS011;56358;56.328;43.992;2022-07-19T00:18:48;5.78;;;3.63;;
69246;SDS011;56358;56.328;43.992;2022-07-19T00:20:49;4.72;;;3.75;;
69246;SDS011;56358;56.328;43.992;2022-07-19T00:22:49;5.50;;;3.63;;
69246;SDS011;56358;56.328;43.992;2022-07-19T00:24:50;6.47;;;3.72;;
69246;SDS011;56358;56.328;43.992;2022-07-19T00:26:51;5.68;;;4.00;;
69246;SDS011;56358;56.328;43.992;2022-07-19T00:28:51;6.35;;;3.65;;
69246;SDS011;56358;56.328;43.992;2022-07-19T00:30:55;6.10;;;3.63;;
69246;SDS011;56358;56.328;43.992;2022-07-19T00:32:56;5.82;;;3.33;;
69246;SDS011;56358;56.328;43.992;2022-07-19T00:34:56;4.85;;;3.50;;
69246;SDS011;56358;56.328;43.992;2022-07-19T00:37:00;8.75;;;3.40;;
69246;SDS011;56358;56.328;43.992;2022-07-19T00:39:01;6.55;;;3.38;;
69246;SDS011;56358;56.328;43.992;2022-07-19T00:41:01;5.22;;;3.30;;
69246;SDS011;56358;56.328;43.992;2022-07-19T00:43:02;4.88;;;3.33;;
69246;SDS011;56358;56.328;43.992;2022-07-19T00:45:04;5.05;;;3.50;;
69246;SDS011;56358;56.328;43.992;2022-07-19T00:47:05;5.53;;;3.15;;
69246;SDS011;56358;56.328;43.992;2022-07-19T00:49:06;5.22;;;3.13;;
69246;SDS011;56358;56.328;43.992;2022-07-19T00:51:10;4.78;;;2.95;;
69246;SDS011;56358;56.328;43.992;2022-07-19T00:53:13;5.35;;;3.25;;
69246;SDS011;56358;56.328;43.992;2022-07-19T00:55:15;4.47;;;3.35;;
69246;SDS011;56358;56.328;43.992;2022-07-19T00:57:20;6.15;;;3.22;;
69246;SDS011;56358;56.328;43.992;2022-07-19T00:59:23;4.97;;;3.17;;
69246;SDS011;56358;56.328;43.992;2022-07-19T01:01:26;5.65;;;3.15;;
69246;SDS011;56358;56.328;43.992;2022-07-19T01:03:27;4.45;;;3.35;;
69246;SDS011;56358;56.328;43.992;2022-07-19T01:05:28;4.70;;;3.33;;
69246;SDS011;56358;56.328;43.992;2022-07-19T01:07:29;4.35;;;3.25;;
69246;SDS011;56358;56.328;43.992;2022-07-19T01:09:30;5.28;;;3.00;;
69246;SDS011;56358;56.328;43.992;2022-07-19T01:11:30;5.30;;;3.40;;
69246;SDS011;56358;56.328;43.992;2022-07-19T01:13:32;4.93;;;3.33;;
69246;SDS011;56358;56.328;43.992;2022-07-19T01:15:33;5.00;;;3.07;;
69246;SDS011;56358;56.328;43.992;2022-07-19T01:17:35;5.25;;;3.28;;
69246;SDS011;56358;56.328;43.992;2022-07-19T01:19:36;5.85;;;3.40;;
69246;SDS011;56358;56.328;43.992;2022-07-19T01:21:37;5.90;;;3.20;;
69246;SDS011;56358;56.328;43.992;2022-07-19T01:23:37;4.80;;;3.47;;
69246;SDS011;56358;56.328;43.992;2022-07-19T01:25:38;7.50;;;3.58;;
69246;SDS011;56358;56.328;43.992;2022-07-19T01:27:43;6.70;;;3.50;;
69246;SDS011;56358;56.328;43.992;2022-07-19T01:29:45;7.13;;;3.30;;
69246;SDS011;56358;56.328;43.992;2022-07-19T01:31:46;5.05;;;3.55;;
69246;SDS011;56358;56.328;43.992;2022-07-19T01:33:47;5.03;;;3.47;;
69246;SDS011;56358;56.328;43.992;2022-07-19T01:35:47;6.28;;;3.30;;
69246;SDS011;56358;56.328;43.992;2022-07-19T01:37:53;5.88;;;3.42;;
69246;SDS011;56358;56.328;43.992;2022-07-19T01:39:54;5.07;;;3.53;;
69246;SDS011;56358;56.328;43.992;2022-07-19T01:41:56;4.85;;;3.30;;
69246;SDS011;56358;56.328;43.992;2022-07-19T01:43:57;8.30;;;4.10;;
69246;SDS011;56358;56.328;43.992;2022-07-19T01:45:58;6.32;;;3.97;;
69246;SDS011;56358;56.328;43.992;2022-07-19T01:47:58;5.70;;;3.50;;
69246;SDS011;56358;56.328;43.992;2022-07-19T01:50:00;6.18;;;3.80;;
69246;SDS011;56358;56.328;43.992;2022-07-19T01:52:01;7.60;;;4.13;;
69246;SDS011;56358;56.328;43.992;2022-07-19T01:54:02;6.25;;;3.70;;
69246;SDS011;56358;56.328;43.992;2022-07-19T01:56:06;4.18;;;3.30;;
69246;SDS011;56358;56.328;43.992;2022-07-19T01:58:07;5.57;;;3.63;;
69246;SDS011;56358;56.328;43.992;2022-07-19T02:00:08;5.07;;;3.28;;
69246;SDS011;56358;56.328;43.992;2022-07-19T02:02:09;5.53;;;3.13;;
69246;SDS011;56358;56.328;43.992;2022-07-19T02:04:09;4.88;;;3.33;;
69246;SDS011;56358;56.328;43.992;2022-07-19T02:06:10;6.10;;;3.08;;
69246;SDS011;56358;56.328;43.992;2022-07-19T02:08:11;4.00;;;2.90;;
69246;SDS011;56358;56.328;43.992;2022-07-19T02:10:12;5.38;;;3.25;;
69246;SDS011;56358;56.328;43.992;2022-07-19T02:12:12;4.63;;;3.05;;
69246;SDS011;56358;56.328;43.992;2022-07-19T02:14:13;5.78;;;3.20;;
69246;SDS011;56358;56.328;43.992;2022-07-19T02:16:14;4.03;;;2.80;;
69246;SDS011;56358;56.328;43.992;2022-07-19T02:18:14;5.43;;;2.72;;
69246;SDS011;56358;56.328;43.992;2022-07-19T02:20:15;3.90;;;2.63;;
69246;SDS011;56358;56.328;43.992;2022-07-19T02:22:16;3.47;;;2.40;;
69246;SDS011;56358;56.328;43.992;2022-07-19T02:24:17;3.88;;;2.50;;
69246;SDS011;56358;56.328;43.992;2022-07-19T02:26:17;9.27;;;2.50;;
69246;SDS011;56358;56.328;43.992;2022-07-19T02:28:24;3.83;;;2.28;;
69246;SDS011;56358;56.328;43.992;2022-07-19T02:30:25;3.72;;;2.30;;
69246;SDS011;56358;56.328;43.992;2022-07-19T02:32:26;4.38;;;2.25;;
69246;SDS011;56358;56.328;43.992;2022-07-19T02:34:27;3.97;;;2.20;;
69246;SDS011;56358;56.328;43.992;2022-07-19T02:36:27;4.07;;;2.40;;
69246;SDS011;56358;56.328;43.992;2022-07-19T02:38:28;3.85;;;2.20;;
69246;SDS011;56358;56.328;43.992;2022-07-19T02:40:28;5.05;;;2.10;;
69246;SDS011;56358;56.328;43.992;2022-07-19T02:42:29;4.88;;;2.55;;
69246;SDS011;56358;56.328;43.992;2022-07-19T02:44:30;3.83;;;2.50;;
69246;SDS011;56358;56.328;43.992;2022-07-19T02:46:31;3.85;;;2.60;;
69246;SDS011;56358;56.328;43.992;2022-07-19T02:48:32;3.60;;;2.50;;
69246;SDS011;56358;56.328;43.992;2022-07-19T02:50:32;4.07;;;2.55;;
69246;SDS011;56358;56.328;43.992;2022-07-19T02:52:33;3.97;;;2.60;;
69246;SDS011;56358;56.328;43.992;2022-07-19T02:54:34;4.35;;;2.70;;
69246;SDS011;56358;56.328;43.992;2022-07-19T02:56:35;5.72;;;2.95;;
69246;SDS011;56358;56.328;43.992;2022-07-19T02:58:36;3.88;;;2.50;;
69246;SDS011;56358;56.328;43.992;2022-07-19T03:00:39;4.13;;;2.28;;
69246;SDS011;56358;56.328;43.992;2022-07-19T03:02:39;3.88;;;2.70;;
69246;SDS011;56358;56.328;43.992;2022-07-19T03:04:40;4.28;;;2.67;;
69246;SDS011;56358;56.328;43.992;2022-07-19T03:06:41;4.45;;;3.00;;
69246;SDS011;56358;56.328;43.992;2022-07-19T03:08:41;4.88;;;2.60;;
69246;SDS011;56358;56.328;43.992;2022-07-19T03:10:42;3.95;;;2.58;;
69246;SDS011;56358;56.328;43.992;2022-07-19T03:12:43;3.78;;;2.03;;
69246;SDS011;56358;56.328;43.992;2022-07-19T03:14:44;3.60;;;2.22;;
69246;SDS011;56358;56.328;43.992;2022-07-19T03:16:45;3.70;;;2.40;;
69246;SDS011;56358;56.328;43.992;2022-07-19T03:18:45;3.47;;;2.33;;
69246;SDS011;56358;56.328;43.992;2022-07-19T03:20:46;3.55;;;2.10;;
69246;SDS011;56358;56.328;43.992;2022-07-19T03:22:46;3.40;;;2.20;;
69246;SDS011;56358;56.328;43.992;2022-07-19T03:24:47;3.88;;;2.50;;
69246;SDS011;56358;56.328;43.992;2022-07-19T03:26:48;4.20;;;2.63;;
69246;SDS011;56358;56.328;43.992;2022-07-19T03:28:52;5.97;;;2.70;;
69246;SDS011;56358;56.328;43.992;2022-07-19T03:30:53;4.20;;;2.70;;
69246;SDS011;56358;56.328;43.992;2022-07-19T03:32:53;4.50;;;2.95;;
69246;SDS011;56358;56.328;43.992;2022-07-19T03:34:57;5.45;;;2.72;;
69246;SDS011;56358;56.328;43.992;2022-07-19T03:36:58;4.68;;;2.30;;
69246;SDS011;56358;56.328;43.992;2022-07-19T03:38:59;4.50;;;2.83;;
69246;SDS011;56358;56.328;43.992;2022-07-19T03:40:59;4.95;;;2.78;;
69246;SDS011;56358;56.328;43.992;2022-07-19T03:43:00;4.63;;;2.60;;
69246;SDS011;56358;56.328;43.992;2022-07-19T03:45:00;5.85;;;2.47;;
69246;SDS011;56358;56.328;43.992;2022-07-19T03:49:04;4.47;;;2.30;;
69246;SDS011;56358;56.328;43.992;2022-07-19T03:51:05;3.78;;;2.60;;
69246;SDS011;56358;56.328;43.992;2022-07-19T03:53:08;4.38;;;2.70;;
69246;SDS011;56358;56.328;43.992;2022-07-19T03:55:09;6.18;;;3.28;;
69246;SDS011;56358;56.328;43.992;2022-07-19T03:57:11;4.97;;;3.03;;
69246;SDS011;56358;56.328;43.992;2022-07-19T03:59:11;4.93;;;3.15;;
69246;SDS011;56358;56.328;43.992;2022-07-19T04:01:12;6.03;;;3.03;;
69246;SDS011;56358;56.328;43.992;2022-07-19T04:03:13;3.53;;;2.60;;
69246;SDS011;56358;56.328;43.992;2022-07-19T04:05:13;4.40;;;2.83;;
69246;SDS011;56358;56.328;43.992;2022-07-19T04:07:14;4.18;;;2.60;;
69246;SDS011;56358;56.328;43.992;2022-07-19T04:09:15;3.80;;;2.55;;
69246;SDS011;56358;56.328;43.992;2022-07-19T04:11:18;4.35;;;2.70;;
69246;SDS011;56358;56.328;43.992;2022-07-19T04:13:19;4.97;;;2.85;;
69246;SDS011;56358;56.328;43.992;2022-07-19T04:15:19;4.50;;;2.60;;
69246;SDS011;56358;56.328;43.992;2022-07-19T04:17:20;4.25;;;2.55;;
69246;SDS011;56358;56.328;43.992;2022-07-19T04:19:21;3.75;;;2.55;;
69246;SDS011;56358;56.328;43.992;2022-07-19T04:21:22;4.40;;;2.70;;
69246;SDS011;56358;56.328;43.992;2022-07-19T04:23:22;4.47;;;2.42;;
69246;SDS011;56358;56.328;43.992;2022-07-19T04:25:23;3.92;;;2.47;;
69246;SDS011;56358;56.328;43.992;2022-07-19T04:27:24;6.57;;;2.83;;
69246;SDS011;56358;56.328;43.992;2022-07-19T04:29:24;4.93;;;2.47;;
69246;SDS011;56358;56.328;43.992;2022-07-19T04:31:25;3.75;;;2.65;;
69246;SDS011;56358;56.328;43.992;2022-07-19T04:33:25;4.63;;;2.55;;
69246;SDS011;56358;56.328;43.992;2022-07-19T04:35:26;8.20;;;3.00;;
69246;SDS011;56358;56.328;43.992;2022-07-19T04:37:27;5.40;;;2.60;;
69246;SDS011;56358;56.328;43.992;2022-07-19T04:39:28;5.03;;;2.63;;
69246;SDS011;56358;56.328;43.992;2022-07-19T04:41:28;4.28;;;2.60;;
69246;SDS011;56358;56.328;43.992;2022-07-19T04:43:29;6.03;;;3.10;;
69246;SDS011;56358;56.328;43.992;2022-07-19T04:45:30;3.33;;;2.58;;
69246;SDS011;56358;56.328;43.992;2022-07-19T04:47:31;7.65;;;4.43;;
69246;SDS011;56358;56.328;43.992;2022-07-19T04:49:32;3.65;;;2.53;;
69246;SDS011;56358;56.328;43.992;2022-07-19T04:51:33;6.03;;;2.80;;
69246;SDS011;56358;56.328;43.992;2022-07-19T04:53:36;5.72;;;3.38;;
69246;SDS011;56358;56.328;43.992;2022-07-19T04:55:37;5.05;;;3.42;;
69246;SDS011;56358;56.328;43.992;2022-07-19T04:57:38;5.03;;;3.05;;
69246;SDS011;56358;56.328;43.992;2022-07-19T04:59:39;5.97;;;3.30;;
69246;SDS011;56358;56.328;43.992;2022-07-19T05:01:40;5.15;;;3.28;;
69246;SDS011;56358;56.328;43.992;2022-07-19T05:03:41;4.28;;;3.00;;
69246;SDS011;56358;56.328;43.992;2022-07-19T05:05:42;6.20;;;3.50;;
69246;SDS011;56358;56.328;43.992;2022-07-19T05:07:43;4.97;;;2.92;;
69246;SDS011;56358;56.328;43.992;2022-07-19T05:09:44;7.70;;;3.60;;
69246;SDS011;56358;56.328;43.992;2022-07-19T05:11:45;4.93;;;3.45;;
69246;SDS011;56358;56.328;43.992;2022-07-19T05:13:45;7.15;;;3.92;;
69246;SDS011;56358;56.328;43.992;2022-07-19T05:15:46;5.00;;;3.22;;
69246;SDS011;56358;56.328;43.992;2022-07-19T05:17:47;5.72;;;3.50;;
69246;SDS011;56358;56.328;43.992;2022-07-19T05:19:47;6.53;;;3.40;;
69246;SDS011;56358;56.328;43.992;2022-07-19T05:21:48;5.13;;;3.55;;
69246;SDS011;56358;56.328;43.992;2022-07-19T05:23:49;4.50;;;3.15;;
69246;SDS011;56358;56.328;43.992;2022-07-19T05:25:49;5.43;;;3.55;;
69246;SDS011;56358;56.328;43.992;2022-07-19T05:27:50;6.10;;;3.70;;
69246;SDS011;56358;56.328;43.992;2022-07-19T05:29:51;9.38;;;5.65;;
69246;SDS011;56358;56.328;43.992;2022-07-19T05:31:51;7.53;;;3.47;;
69246;SDS011;56358;56.328;43.992;2022-07-19T05:33:52;4.78;;;3.20;;
69246;SDS011;56358;56.328;43.992;2022-07-19T05:35:53;4.53;;;3.20;;
69246;SDS011;56358;56.328;43.992;2022-07-19T05:37:54;4.90;;;3.22;;
69246;SDS011;56358;56.328;43.992;2022-07-19T05:39:55;5.18;;;2.97;;
69246;SDS011;56358;56.328;43.992;2022-07-19T05:41:56;8.98;;;3.55;;
69246;SDS011;56358;56.328;43.992;2022-07-19T05:43:57;4.90;;;2.85;;
69246;SDS011;56358;56.328;43.992;2022-07-19T05:45:57;3.88;;;2.55;;
69246;SDS011;56358;56.328;43.992;2022-07-19T05:47:58;4.70;;;2.95;;
69246;SDS011;56358;56.328;43.992;2022-07-19T05:49:59;5.70;;;3.50;;
69246;SDS011;56358;56.328;43.992;2022-07-19T05:51:59;5.97;;;2.88;;
69246;SDS011;56358;56.328;43.992;2022-07-19T05:54:00;4.50;;;2.72;;
69246;SDS011;56358;56.328;43.992;2022-07-19T05:56:01;7.95;;;3.97;;
69246;SDS011;56358;56.328;43.992;2022-07-19T05:58:02;5.78;;;3.08;;
69246;SDS011;56358;56.328;43.992;2022-07-19T06:00:03;6.78;;;2.88;;
69246;SDS011;56358;56.328;43.992;2022-07-19T06:02:05;4.20;;;2.78;;
69246;SDS011;56358;56.328;43.992;2022-07-19T06:04:06;4.85;;;2.70;;
69246;SDS011;56358;56.328;43.992;2022-07-19T06:06:06;6.38;;;3.13;;
69246;SDS011;56358;56.328;43.992;2022-07-19T06:08:07;3.85;;;2.65;;
69246;SDS011;56358;56.328;43.992;2022-07-19T06:10:08;7.47;;;3.25;;
69246;SDS011;56358;56.328;43.992;2022-07-19T06:12:10;4.13;;;2.73;;
69246;SDS011;56358;56.328;43.992;2022-07-19T06:14:11;7.00;;;3.30;;
69246;SDS011;56358;56.328;43.992;2022-07-19T06:16:12;4.80;;;3.03;;
69246;SDS011;56358;56.328;43.992;2022-07-19T06:18:13;10.15;;;3.67;;
69246;SDS011;56358;56.328;43.992;2022-07-19T06:20:13;5.35;;;2.90;;
69246;SDS011;56358;56.328;43.992;2022-07-19T06:22:14;5.43;;;3.10;;
69246;SDS011;56358;56.328;43.992;2022-07-19T06:24:17;12.68;;;3.90;;
69246;SDS011;56358;56.328;43.992;2022-07-19T06:26:18;5.75;;;3.10;;
69246;SDS011;56358;56.328;43.992;2022-07-19T06:28:19;5.75;;;3.70;;
69246;SDS011;56358;56.328;43.992;2022-07-19T06:30:19;8.50;;;3.75;;
69246;SDS011;56358;56.328;43.992;2022-07-19T06:32:20;6.28;;;3.35;;
69246;SDS011;56358;56.328;43.992;2022-07-19T06:34:21;5.85;;;3.20;;
69246;SDS011;56358;56.328;43.992;2022-07-19T06:36:22;5.03;;;3.30;;
69246;SDS011;56358;56.328;43.992;2022-07-19T06:38:22;7.03;;;3.75;;
69246;SDS011;56358;56.328;43.992;2022-07-19T06:40:23;7.82;;;4.35;;
69246;SDS011;56358;56.328;43.992;2022-07-19T06:42:24;6.47;;;3.42;;
69246;SDS011;56358;56.328;43.992;2022-07-19T06:44:24;5.55;;;3.40;;
69246;SDS011;56358;56.328;43.992;2022-07-19T06:46:25;5.63;;;3.33;;
69246;SDS011;56358;56.328;43.992;2022-07-19T06:48:26;5.30;;;2.97;;
69246;SDS011;56358;56.328;43.992;2022-07-19T06:52:29;15.02;;;3.63;;
69246;SDS011;56358;56.328;43.992;2022-07-19T06:54:30;8.18;;;3.72;;
69246;SDS011;56358;56.328;43.992;2022-07-19T06:56:31;7.60;;;3.50;;
69246;SDS011;56358;56.328;43.992;2022-07-19T06:58:31;6.40;;;3.47;;
69246;SDS011;56358;56.328;43.992;2022-07-19T07:00:32;4.88;;;3.40;;
69246;SDS011;56358;56.328;43.992;2022-07-19T07:02:33;5.75;;;3.15;;
69246;SDS011;56358;56.328;43.992;2022-07-19T07:04:36;6.80;;;3.28;;
69246;SDS011;56358;56.328;43.992;2022-07-19T07:06:36;7.50;;;3.80;;
69246;SDS011;56358;56.328;43.992;2022-07-19T07:08:37;7.45;;;4.38;;
69246;SDS011;56358;56.328;43.992;2022-07-19T07:10:41;9.98;;;4.43;;
69246;SDS011;56358;56.328;43.992;2022-07-19T07:12:42;6.15;;;3.95;;
69246;SDS011;56358;56.328;43.992;2022-07-19T07:14:42;7.70;;;3.83;;
69246;SDS011;56358;56.328;43.992;2022-07-19T07:16:43;6.43;;;4.40;;
69246;SDS011;56358;56.328;43.992;2022-07-19T07:18:44;7.70;;;3.47;;
69246;SDS011;56358;56.328;43.992;2022-07-19T07:20:47;10.02;;;3.53;;
69246;SDS011;56358;56.328;43.992;2022-07-19T07:22:47;7.90;;;3.97;;
69246;SDS011;56358;56.328;43.992;2022-07-19T07:24:48;6.68;;;3.72;;
69246;SDS011;56358;56.328;43.992;2022-07-19T07:26:49;7.20;;;3.40;;
69246;SDS011;56358;56.328;43.992;2022-07-19T07:28:49;6.28;;;4.20;;
69246;SDS011;56358;56.328;43.992;2022-07-19T07:30:50;5.40;;;3.60;;
69246;SDS011;56358;56.328;43.992;2022-07-19T07:32:51;6.05;;;3.10;;
69246;SDS011;56358;56.328;43.992;2022-07-19T07:34:52;7.32;;;3.10;;
69246;SDS011;56358;56.328;43.992;2022-07-19T07:36:54;6.28;;;3.10;;
69246;SDS011;56358;56.328;43.992;2022-07-19T07:38:55;5.18;;;3.00;;
69246;SDS011;56358;56.328;43.992;2022-07-19T07:40:55;5.03;;;2.65;;
69246;SDS011;56358;56.328;43.992;2022-07-19T07:42:56;3.63;;;2.88;;
69246;SDS011;56358;56.328;43.992;2022-07-19T07:44:58;8.57;;;3.38;;
69246;SDS011;56358;56.328;43.992;2022-07-19T07:47:00;6.47;;;3.10;;
69246;SDS011;56358;56.328;43.992;2022-07-19T07:49:01;4.15;;;2.80;;
69246;SDS011;56358;56.328;43.992;2022-07-19T07:51:02;7.53;;;3.17;;
69246;SDS011;56358;56.328;43.992;2022-07-19T07:53:02;7.18;;;3.58;;
69246;SDS011;56358;56.328;43.992;2022-07-19T07:55:03;9.38;;;4.38;;
69246;SDS011;56358;56.328;43.992;2022-07-19T07:57:05;6.03;;;3.15;;
69246;SDS011;56358;56.328;43.992;2022-07-19T07:59:05;7.53;;;3.50;;
69246;SDS011;56358;56.328;43.992;2022-07-19T08:01:06;5.13;;;3.28;;
69246;SDS011;56358;56.328;43.992;2022-07-19T08:03:07;5.88;;;2.85;;
69246;SDS011;56358;56.328;43.992;2022-07-19T08:05:08;8.32;;;3.35;;
69246;SDS011;56358;56.328;43.992;2022-07-19T08:07:09;6.95;;;3.67;;
69246;SDS011;56358;56.328;43.992;2022-07-19T08:09:09;3.88;;;2.30;;
69246;SDS011;56358;56.328;43.992;2022-07-19T08:11:10;5.97;;;3.20;;
69246;SDS011;56358;56.328;43.992;2022-07-19T08:13:11;8.20;;;2.72;;
69246;SDS011;56358;56.328;43.992;2022-07-19T08:15:11;10.32;;;2.83;;
69246;SDS011;56358;56.328;43.992;2022-07-19T08:17:12;10.50;;;4.03;;
69246;SDS011;56358;56.328;43.992;2022-07-19T08:19:13;4.30;;;2.50;;
69246;SDS011;56358;56.328;43.992;2022-07-19T08:21:13;10.00;;;3.03;;
69246;SDS011;56358;56.328;43.992;2022-07-19T08:23:17;6.15;;;2.65;;
69246;SDS011;56358;56.328;43.992;2022-07-19T08:25:17;5.43;;;2.40;;
69246;SDS011;56358;56.328;43.992;2022-07-19T08:27:18;9.32;;;3.97;;
69246;SDS011;56358;56.328;43.992;2022-07-19T08:29:19;5.70;;;3.05;;
69246;SDS011;56358;56.328;43.992;2022-07-19T08:31:20;14.27;;;4.68;;
69246;SDS011;56358;56.328;43.992;2022-07-19T08:33:20;6.68;;;2.70;;
69246;SDS011;56358;56.328;43.992;2022-07-19T08:35:21;5.13;;;2.88;;
69246;SDS011;56358;56.328;43.992;2022-07-19T08:37:25;5.88;;;3.08;;
69246;SDS011;56358;56.328;43.992;2022-07-19T08:39:26;7.72;;;2.88;;
69246;SDS011;56358;56.328;43.992;2022-07-19T08:41:26;6.68;;;2.70;;
69246;SDS011;56358;56.328;43.992;2022-07-19T08:43:27;3.90;;;2.42;;
69246;SDS011;56358;56.328;43.992;2022-07-19T08:45:28;4.47;;;2.65;;
69246;SDS011;56358;56.328;43.992;2022-07-19T08:47:30;4.95;;;2.60;;
69246;SDS011;56358;56.328;43.992;2022-07-19T08:49:32;6.63;;;2.35;;
69246;SDS011;56358;56.328;43.992;2022-07-19T08:51:33;3.85;;;2.08;;
69246;SDS011;56358;56.328;43.992;2022-07-19T08:53:34;4.07;;;2.28;;
69246;SDS011;56358;56.328;43.992;2022-07-19T08:55:38;6.18;;;2.28;;
69246;SDS011;56358;56.328;43.992;2022-07-19T08:57:39;4.28;;;2.25;;
69246;SDS011;56358;56.328;43.992;2022-07-19T08:59:58;4.90;;;2.30;;
69246;SDS011;56358;56.328;43.992;2022-07-19T09:01:59;12.93;;;4.28;;
69246;SDS011;56358;56.328;43.992;2022-07-19T09:04:16;6.55;;;2.85;;
69246;SDS011;56358;56.328;43.992;2022-07-19T09:06:17;5.22;;;2.30;;
69246;SDS011;56358;56.328;43.992;2022-07-19T09:08:17;5.03;;;1.80;;
69246;SDS011;56358;56.328;43.992;2022-07-19T09:10:19;2.85;;;1.90;;
69246;SDS011;56358;56.328;43.992;2022-07-19T09:12:23;3.08;;;1.90;;
69246;SDS011;56358;56.328;43.992;2022-07-19T09:14:25;4.80;;;2.33;;
69246;SDS011;56358;56.328;43.992;2022-07-19T09:16:28;3.78;;;2.00;;
69246;SDS011;56358;56.328;43.992;2022-07-19T09:18:48;4.78;;;2.10;;
69246;SDS011;56358;56.328;43.992;2022-07-19T09:20:50;3.63;;;2.00;;
69246;SDS011;56358;56.328;43.992;2022-07-19T09:22:55;4.55;;;1.65;;
69246;SDS011;56358;56.328;43.992;2022-07-19T09:24:56;6.40;;;2.00;;
69246;SDS011;56358;56.328;43.992;2022-07-19T09:27:03;8.38;;;2.40;;
69246;SDS011;56358;56.328;43.992;2022-07-19T09:29:17;9.23;;;2.30;;
69246;SDS011;56358;56.328;43.992;2022-07-19T09:33:19;6.95;;;2.00;;
69246;SDS011;56358;56.328;43.992;2022-07-19T09:35:33;4.18;;;1.98;;
69246;SDS011;56358;56.328;43.992;2022-07-19T09:38:12;7.27;;;2.20;;
69246;SDS011;56358;56.328;43.992;2022-07-19T09:40:16;7.47;;;2.65;;
69246;SDS011;56358;56.328;43.992;2022-07-19T09:42:19;6.25;;;2.50;;
69246;SDS011;56358;56.328;43.992;2022-07-19T09:44:21;4.38;;;2.47;;
69246;SDS011;56358;56.328;43.992;2022-07-19T09:46:35;5.45;;;3.60;;
69246;SDS011;56358;56.328;43.992;2022-07-19T09:48:43;8.50;;;4.43;;
69246;SDS011;56358;56.328;43.992;2022-07-19T09:50:45;8.40;;;3.30;;
69246;SDS011;56358;56.328;43.992;2022-07-19T09:52:48;6.32;;;2.67;;
69246;SDS011;56358;56.328;43.992;2022-07-19T09:54:51;5.60;;;2.40;;
69246;SDS011;56358;56.328;43.992;2022-07-19T09:56:52;7.68;;;3.60;;
69246;SDS011;56358;56.328;43.992;2022-07-19T09:58:54;13.25;;;6.45;;
69246;SDS011;56358;56.328;43.992;2022-07-19T10:00:56;9.45;;;2.60;;
69246;SDS011;56358;56.328;43.992;2022-07-19T10:02:58;4.18;;;2.40;;
69246;SDS011;56358;56.328;43.992;2022-07-19T10:04:59;9.15;;;2.42;;
69246;SDS011;56358;56.328;43.992;2022-07-19T10:07:03;6.05;;;2.58;;
69246;SDS011;56358;56.328;43.992;2022-07-19T10:09:08;3.15;;;2.00;;
69246;SDS011;56358;56.328;43.992;2022-07-19T10:11:10;5.40;;;2.33;;
69246;SDS011;56358;56.328;43.992;2022-07-19T10:13:11;3.92;;;2.08;;
69246;SDS011;56358;56.328;43.992;2022-07-19T10:15:13;4.70;;;2.50;;
69246;SDS011;56358;56.328;43.992;2022-07-19T10:21:45;3.65;;;1.85;;
69246;SDS011;56358;56.328;43.992;2022-07-19T10:23:50;4.20;;;1.90;;
69246;SDS011;56358;56.328;43.992;2022-07-19T10:25:51;4.40;;;1.98;;
69246;SDS011;56358;56.328;43.992;2022-07-19T10:27:52;5.80;;;2.55;;
69246;SDS011;56358;56.328;43.992;2022-07-19T10:32:02;4.88;;;2.17;;
69246;SDS011;56358;56.328;43.992;2022-07-19T10:34:05;4.70;;;2.00;;
69246;SDS011;56358;56.328;43.992;2022-07-19T10:36:50;5.28;;;1.92;;
69246;SDS011;56358;56.328;43.992;2022-07-19T10:38:36;6.90;;;2.65;;
69246;SDS011;56358;56.328;43.992;2022-07-19T10:40:46;4.93;;;2.60;;
69246;SDS011;56358;56.328;43.992;2022-07-19T10:43:04;3.85;;;2.45;;
69246;SDS011;56358;56.328;43.992;2022-07-19T10:45:09;8.45;;;3.00;;
69246;SDS011;56358;56.328;43.992;2022-07-19T10:47:11;5.05;;;2.47;;
69246;SDS011;56358;56.328;43.992;2022-07-19T10:49:12;4.65;;;2.47;;
69246;SDS011;56358;56.328;43.992;2022-07-19T10:51:47;4.13;;;2.25;;
69246;SDS011;56358;56.328;43.992;2022-07-19T10:53:55;3.67;;;2.20;;
69246;SDS011;56358;56.328;43.992;2022-07-19T10:58:17;4.05;;;2.20;;
69246;SDS011;56358;56.328;43.992;2022-07-19T11:00:26;3.17;;;2.20;;
69246;SDS011;56358;56.328;43.992;2022-07-19T11:02:28;4.72;;;1.73;;
69246;SDS011;56358;56.328;43.992;2022-07-19T11:04:30;2.50;;;1.40;;
69246;SDS011;56358;56.328;43.992;2022-07-19T11:06:32;2.95;;;1.58;;
69246;SDS011;56358;56.328;43.992;2022-07-19T11:08:42;4.28;;;1.55;;
69246;SDS011;56358;56.328;43.992;2022-07-19T11:10:43;4.25;;;1.48;;
69246;SDS011;56358;56.328;43.992;2022-07-19T11:12:45;3.53;;;1.50;;
69246;SDS011;56358;56.328;43.992;2022-07-19T11:14:46;8.98;;;2.10;;
69246;SDS011;56358;56.328;43.992;2022-07-19T11:16:47;8.80;;;1.38;;
69246;SDS011;56358;56.328;43.992;2022-07-19T11:19:06;7.72;;;1.30;;
69246;SDS011;56358;56.328;43.992;2022-07-19T11:21:10;4.10;;;1.30;;
69246;SDS011;56358;56.328;43.992;2022-07-19T11:23:16;4.88;;;1.30;;
69246;SDS011;56358;56.328;43.992;2022-07-19T11:25:39;5.20;;;1.30;;
69246;SDS011;56358;56.328;43.992;2022-07-19T11:27:42;3.70;;;1.30;;
69246;SDS011;56358;56.328;43.992;2022-07-19T11:29:57;5.57;;;1.30;;
69246;SDS011;56358;56.328;43.992;2022-07-19T11:31:59;1.92;;;1.30;;
69246;SDS011;56358;56.328;43.992;2022-07-19T11:34:00;1.88;;;1.20;;
69246;SDS011;56358;56.328;43.992;2022-07-19T11:36:01;5.97;;;1.77;;
69246;SDS011;56358;56.328;43.992;2022-07-19T11:38:02;5.15;;;2.10;;
69246;SDS011;56358;56.328;43.992;2022-07-19T11:40:03;3.42;;;1.55;;
69246;SDS011;56358;56.328;43.992;2022-07-19T11:42:07;9.48;;;1.52;;
69246;SDS011;56358;56.328;43.992;2022-07-19T11:44:07;3.08;;;1.15;;
69246;SDS011;56358;56.328;43.992;2022-07-19T11:46:08;3.78;;;1.13;;
69246;SDS011;56358;56.328;43.992;2022-07-19T11:48:09;5.03;;;1.13;;
69246;SDS011;56358;56.328;43.992;2022-07-19T11:50:12;3.80;;;1.50;;
69246;SDS011;56358;56.328;43.992;2022-07-19T11:52:16;1.77;;;1.10;;
69246;SDS011;56358;56.328;43.992;2022-07-19T11:54:17;5.03;;;1.52;;
69246;SDS011;56358;56.328;43.992;2022-07-19T11:56:25;5.28;;;2.30;;
69246;SDS011;56358;56.328;43.992;2022-07-19T11:58:27;2.78;;;1.55;;
69246;SDS011;56358;56.328;43.992;2022-07-19T12:00:34;2.08;;;1.00;;
69246;SDS011;56358;56.328;43.992;2022-07-19T12:05:08;8.15;;;1.40;;
69246;SDS011;56358;56.328;43.992;2022-07-19T12:07:10;2.72;;;1.17;;
69246;SDS011;56358;56.328;43.992;2022-07-19T12:09:12;5.75;;;1.40;;
69246;SDS011;56358;56.328;43.992;2022-07-19T12:11:23;1.58;;;0.90;;
69246;SDS011;56358;56.328;43.992;2022-07-19T12:13:28;3.20;;;1.30;;
69246;SDS011;56358;56.328;43.992;2022-07-19T12:15:45;2.70;;;1.58;;
69246;SDS011;56358;56.328;43.992;2022-07-19T12:17:55;3.05;;;0.93;;
69246;SDS011;56358;56.328;43.992;2022-07-19T12:20:08;2.45;;;1.10;;
69246;SDS011;56358;56.328;43.992;2022-07-19T12:24:47;3.70;;;1.02;;
69246;SDS011;56358;56.328;43.992;2022-07-19T12:28:51;8.90;;;1.20;;